createdAt,value
2022-08-29T00:00:31.872Z,9.88
2022-08-29T00:03:00.352Z,8.68
2022-08-29T00:05:34.054Z,9.00
2022-08-29T00:08:04.932Z,9.25
2022-08-29T00:10:37.916Z,9.35
2022-08-29T00:13:06.607Z,9.93
2022-08-29T00:15:44.631Z,9.30
2022-08-29T00:18:16.221Z,10.38
2022-08-29T00:20:44.366Z,9.67
2022-08-29T00:23:11.910Z,9.88
2022-08-29T00:25:38.739Z,9.70
2022-08-29T00:28:06.054Z,10.30
2022-08-29T00:30:33.757Z,10.00
2022-08-29T00:33:00.429Z,9.93
2022-08-29T00:35:31.316Z,10.20
2022-08-29T00:37:58.801Z,10.37
2022-08-29T00:40:38.137Z,10.45
2022-08-29T00:43:06.422Z,9.63
2022-08-29T00:45:34.458Z,9.45
2022-08-29T00:48:05.535Z,9.82
2022-08-29T00:50:36.944Z,11.00
2022-08-29T00:53:06.306Z,9.63
2022-08-29T00:55:36.157Z,10.00
2022-08-29T00:58:08.513Z,9.55
2022-08-29T01:00:36.046Z,9.85
2022-08-29T01:03:04.688Z,10.38
2022-08-29T01:05:32.957Z,9.30
2022-08-29T01:07:59.862Z,10.25
2022-08-29T01:10:45.307Z,9.93
2022-08-29T01:13:12.543Z,10.20
2022-08-29T01:15:44.073Z,10.48
2022-08-29T01:18:12.052Z,10.27
2022-08-29T01:21:16.777Z,11.00
2022-08-29T01:24:13.930Z,10.63
2022-08-29T01:26:41.762Z,10.27
2022-08-29T01:29:09.229Z,11.30
2022-08-29T01:31:56.867Z,10.98
2022-08-29T01:34:26.134Z,10.32
2022-08-29T01:36:59.242Z,10.82
2022-08-29T01:39:29.840Z,11.13
2022-08-29T01:41:57.829Z,11.75
2022-08-29T01:44:26.334Z,10.35
2022-08-29T01:47:01.874Z,10.52
2022-08-29T01:49:31.286Z,10.98
2022-08-29T01:51:57.936Z,10.50
2022-08-29T01:54:24.685Z,10.75
2022-08-29T01:56:52.751Z,10.27
2022-08-29T01:59:23.683Z,11.77
2022-08-29T02:01:54.723Z,11.15
2022-08-29T02:04:21.665Z,11.87
2022-08-29T02:06:48.522Z,10.30
2022-08-29T02:09:15.170Z,13.73
2022-08-29T02:11:41.982Z,12.32
2022-08-29T02:14:09.732Z,11.73
2022-08-29T02:16:46.323Z,11.73
2022-08-29T02:19:13.118Z,11.85
2022-08-29T02:21:40.668Z,11.00
2022-08-29T02:24:24.371Z,11.80
2022-08-29T02:26:52.600Z,10.20
2022-08-29T02:29:19.223Z,11.13
2022-08-29T02:31:46.018Z,11.43
2022-08-29T02:34:13.028Z,12.30
2022-08-29T02:36:41.427Z,12.15
2022-08-29T02:39:08.701Z,11.98
2022-08-29T02:41:36.115Z,12.45
2022-08-29T02:44:03.927Z,11.80
2022-08-29T02:46:31.087Z,11.10
2022-08-29T02:49:01.481Z,11.27
2022-08-29T02:51:30.767Z,11.93
2022-08-29T02:53:58.421Z,11.75
2022-08-29T02:56:25.773Z,11.30
2022-08-29T02:58:52.719Z,12.65
2022-08-29T03:01:22.216Z,11.88
2022-08-29T03:03:50.464Z,11.95
2022-08-29T03:06:17.754Z,12.38
2022-08-29T03:08:44.443Z,12.60
2022-08-29T03:11:11.142Z,12.60
2022-08-29T03:13:37.863Z,12.05
2022-08-29T03:16:04.935Z,12.00
2022-08-29T03:18:31.718Z,11.68
2022-08-29T03:20:58.417Z,12.18
2022-08-29T03:23:25.323Z,11.43
2022-08-29T03:25:51.929Z,12.82
2022-08-29T03:28:18.655Z,13.45
2022-08-29T03:30:45.413Z,13.55
2022-08-29T03:33:12.296Z,12.27
2022-08-29T03:35:39.715Z,13.52
2022-08-29T03:38:07.079Z,12.88
2022-08-29T03:40:33.992Z,13.27
2022-08-29T03:43:00.933Z,11.57
2022-08-29T03:45:27.828Z,12.18
2022-08-29T03:47:54.546Z,12.40
2022-08-29T03:50:22.856Z,12.10
2022-08-29T03:52:49.700Z,12.85
2022-08-29T03:55:17.224Z,13.23
2022-08-29T03:57:45.196Z,12.57
2022-08-29T04:00:16.464Z,13.48
2022-08-29T04:02:46.035Z,12.02
2022-08-29T04:05:14.603Z,12.52
2022-08-29T04:07:47.379Z,13.02
2022-08-29T04:10:22.620Z,12.32
2022-08-29T04:12:53.917Z,12.68
2022-08-29T04:15:23.043Z,12.48
2022-08-29T04:17:54.449Z,12.70
2022-08-29T04:20:25.249Z,13.80
2022-08-29T04:22:54.366Z,12.77
2022-08-29T04:25:22.226Z,13.45
2022-08-29T04:27:49.688Z,12.30
2022-08-29T04:30:19.119Z,12.93
2022-08-29T04:32:46.121Z,14.57
2022-08-29T04:35:14.499Z,12.95
2022-08-29T04:37:41.807Z,12.35
2022-08-29T04:40:11.019Z,13.10
2022-08-29T04:42:38.729Z,11.93
2022-08-29T04:45:07.745Z,12.70
2022-08-29T04:47:37.789Z,12.82
2022-08-29T04:50:06.746Z,12.77
2022-08-29T04:52:33.434Z,12.75
2022-08-29T04:55:00.368Z,11.68
2022-08-29T04:57:27.039Z,11.77
2022-08-29T04:59:59.087Z,12.68
2022-08-29T05:02:27.891Z,12.00
2022-08-29T05:04:56.668Z,11.07
2022-08-29T05:07:25.927Z,10.35
2022-08-29T05:10:02.035Z,12.68
2022-08-29T05:12:30.446Z,10.90
2022-08-29T05:14:57.438Z,10.05
2022-08-29T05:17:24.760Z,10.27
2022-08-29T05:19:51.582Z,12.73
2022-08-29T05:22:19.949Z,11.15
2022-08-29T05:24:49.057Z,12.25
2022-08-29T05:27:19.061Z,12.13
2022-08-29T05:29:47.602Z,10.50
2022-08-29T05:32:15.476Z,9.13
2022-08-29T05:34:44.085Z,9.38
2022-08-29T05:37:14.175Z,9.27
2022-08-29T05:39:41.536Z,9.57
2022-08-29T05:42:09.936Z,10.18
2022-08-29T05:44:37.134Z,9.75
2022-08-29T05:47:05.982Z,9.50
2022-08-29T05:49:32.710Z,10.23
2022-08-29T05:52:00.739Z,11.48
2022-08-29T05:54:29.944Z,10.10
2022-08-29T05:56:57.227Z,10.75
2022-08-29T05:59:23.892Z,10.45
2022-08-29T06:01:50.666Z,10.30
2022-08-29T06:04:18.806Z,9.68
2022-08-29T06:06:45.484Z,8.93
2022-08-29T06:09:13.845Z,9.70
2022-08-29T06:11:40.775Z,8.90
2022-08-29T06:14:07.489Z,9.38
2022-08-29T06:16:34.242Z,10.75
2022-08-29T06:19:01.080Z,9.80
2022-08-29T06:21:27.847Z,9.27
2022-08-29T06:23:55.243Z,9.15
2022-08-29T06:26:22.191Z,9.52
2022-08-29T06:28:49.271Z,10.50
2022-08-29T06:31:20.907Z,9.80
2022-08-29T06:36:14.528Z,10.00
2022-08-29T06:38:41.204Z,9.55
2022-08-29T06:41:12.525Z,8.50
2022-08-29T06:43:40.539Z,9.32
2022-08-29T06:46:08.310Z,9.13
2022-08-29T06:48:35.337Z,9.65
2022-08-29T06:51:02.806Z,9.60
2022-08-29T06:53:31.996Z,8.73
2022-08-29T06:56:11.094Z,8.50
2022-08-29T06:58:38.848Z,8.23
2022-08-29T07:01:14.219Z,8.38
2022-08-29T07:03:41.513Z,8.35
2022-08-29T07:06:09.449Z,7.03
2022-08-29T07:08:39.781Z,7.05
2022-08-29T07:11:09.287Z,8.07
2022-08-29T07:13:35.941Z,9.07
2022-08-29T07:16:03.245Z,8.43
2022-08-29T07:18:29.881Z,7.93
2022-08-29T07:20:56.550Z,9.35
2022-08-29T07:23:23.202Z,7.93
2022-08-29T07:25:49.832Z,8.63
2022-08-29T07:28:16.779Z,7.32
2022-08-29T07:30:43.581Z,7.55
2022-08-29T07:33:10.307Z,8.18
2022-08-29T07:35:37.186Z,7.63
2022-08-29T07:38:03.991Z,7.70
2022-08-29T07:40:30.813Z,6.95
2022-08-29T07:42:57.473Z,7.10
2022-08-29T07:45:24.409Z,6.85
2022-08-29T07:47:51.289Z,6.95
2022-08-29T07:50:18.036Z,7.65
2022-08-29T07:52:44.848Z,7.20
2022-08-29T07:55:12.081Z,7.10
2022-08-29T07:57:39.991Z,7.38
2022-08-29T08:00:12.254Z,8.18
2022-08-29T08:02:39.201Z,7.20
2022-08-29T08:05:07.055Z,7.53
2022-08-29T08:07:35.224Z,7.78
2022-08-29T08:10:02.872Z,6.57
2022-08-29T08:12:29.593Z,6.63
2022-08-29T08:14:57.173Z,6.75
2022-08-29T08:17:24.482Z,6.97
2022-08-29T08:19:51.096Z,6.70
2022-08-29T08:22:17.799Z,6.80
2022-08-29T08:24:45.115Z,7.65
2022-08-29T08:27:11.875Z,6.93
2022-08-29T08:29:38.550Z,7.38
2022-08-29T08:32:05.337Z,7.35
2022-08-29T08:34:35.761Z,6.43
2022-08-29T08:37:07.998Z,6.55
2022-08-29T08:39:35.016Z,7.55
2022-08-29T08:42:16.780Z,7.82
2022-08-29T08:47:33.561Z,7.20
2022-08-29T08:50:20.758Z,7.88
2022-08-29T08:52:58.914Z,7.50
2022-08-29T08:55:45.954Z,7.60
2022-08-29T08:58:38.999Z,7.53
2022-08-29T09:01:30.216Z,7.70
2022-08-29T09:04:08.796Z,8.27
2022-08-29T09:06:42.876Z,8.00
2022-08-29T09:09:29.836Z,7.80
2022-08-29T09:12:13.545Z,7.55
2022-08-29T09:14:44.141Z,8.27
2022-08-29T09:17:22.225Z,8.00
2022-08-29T09:19:50.966Z,6.80
2022-08-29T09:22:32.737Z,8.15
2022-08-29T09:25:06.358Z,8.10
2022-08-29T09:27:35.427Z,8.48
2022-08-29T09:30:20.586Z,8.18
2022-08-29T09:33:01.733Z,8.00
2022-08-29T09:35:40.657Z,7.57
2022-08-29T09:38:28.076Z,7.03
2022-08-29T09:41:04.246Z,7.35
2022-08-29T09:43:48.098Z,8.23
2022-08-29T09:46:23.468Z,7.05
2022-08-29T09:48:53.582Z,7.38
2022-08-29T09:51:30.545Z,8.27
2022-08-29T09:54:14.653Z,7.57
2022-08-29T09:56:52.149Z,7.40
2022-08-29T09:59:33.848Z,7.57
2022-08-29T10:02:16.806Z,7.93
2022-08-29T10:04:50.826Z,8.15
2022-08-29T10:07:28.180Z,8.25
2022-08-29T10:09:57.796Z,7.90
2022-08-29T10:12:34.152Z,7.90
2022-08-29T10:15:05.696Z,8.55
2022-08-29T10:17:57.380Z,9.82
2022-08-29T10:20:35.415Z,8.38
2022-08-29T10:23:08.931Z,8.02
2022-08-29T10:25:38.128Z,8.18
2022-08-29T10:28:18.646Z,8.18
2022-08-29T10:30:54.781Z,7.00
2022-08-29T10:33:31.591Z,7.10
2022-08-29T10:36:25.752Z,6.88
2022-08-29T10:39:02.934Z,6.90
2022-08-29T10:41:29.535Z,7.60
2022-08-29T10:44:10.065Z,6.57
2022-08-29T10:46:45.980Z,7.60
2022-08-29T10:49:51.324Z,7.05
2022-08-29T10:52:51.451Z,6.88
2022-08-29T10:55:42.115Z,6.60
2022-08-29T10:58:18.084Z,6.07
2022-08-29T11:01:08.905Z,6.68
2022-08-29T11:03:47.564Z,6.20
2022-08-29T11:06:22.370Z,7.05
2022-08-29T11:08:58.493Z,6.68
2022-08-29T11:11:26.881Z,7.00
2022-08-29T11:14:03.534Z,6.57
2022-08-29T11:16:41.339Z,6.00
2022-08-29T11:19:22.627Z,5.97
2022-08-29T11:21:52.542Z,6.15
2022-08-29T11:24:29.661Z,6.65
2022-08-29T11:27:16.563Z,7.28
2022-08-29T11:30:18.305Z,7.10
2022-08-29T11:33:08.484Z,6.95
2022-08-29T11:35:47.021Z,7.20
2022-08-29T11:38:43.918Z,6.72
2022-08-29T11:41:28.577Z,6.78
2022-08-29T11:44:36.387Z,7.43
2022-08-29T11:47:37.675Z,6.55
2022-08-29T11:50:30.796Z,6.75
2022-08-29T11:53:11.558Z,7.10
2022-08-29T11:55:44.156Z,7.78
2022-08-29T11:58:13.727Z,8.07
2022-08-29T12:00:44.266Z,8.10
2022-08-29T12:03:40.188Z,8.48
2022-08-29T12:06:29.909Z,7.80
2022-08-29T12:09:14.421Z,8.35
2022-08-29T12:11:59.444Z,7.85
2022-08-29T12:14:48.662Z,7.03
2022-08-29T12:17:44.853Z,7.45
2022-08-29T12:20:17.860Z,7.35
2022-08-29T12:23:07.357Z,7.20
2022-08-29T12:25:42.747Z,7.43
2022-08-29T12:28:19.859Z,6.80
2022-08-29T12:31:11.958Z,7.25
2022-08-29T12:34:06.880Z,6.78
2022-08-29T12:36:52.118Z,7.13
2022-08-29T12:39:25.180Z,6.90
2022-08-29T12:42:16.322Z,6.40
2022-08-29T12:44:50.438Z,6.55
2022-08-29T12:47:28.441Z,6.20
2022-08-29T12:49:58.748Z,7.65
2022-08-29T12:52:35.680Z,6.00
2022-08-29T12:55:28.819Z,6.45
2022-08-29T12:57:57.579Z,6.10
2022-08-29T13:00:28.589Z,6.00
2022-08-29T13:03:02.071Z,6.60
2022-08-29T13:05:31.350Z,6.43
2022-08-29T13:08:10.981Z,6.85
2022-08-29T13:10:55.730Z,7.03
2022-08-29T13:13:24.177Z,6.53
2022-08-29T13:15:54.021Z,7.72
2022-08-29T13:18:21.906Z,7.00
2022-08-29T13:21:14.018Z,7.35
2022-08-29T13:23:48.325Z,7.00
2022-08-29T13:26:14.908Z,7.13
2022-08-29T13:28:54.500Z,6.72
2022-08-29T13:31:27.136Z,7.07
2022-08-29T13:33:56.385Z,7.25
2022-08-29T13:36:49.413Z,6.18
2022-08-29T13:39:25.428Z,7.22
2022-08-29T13:41:57.897Z,6.28
2022-08-29T13:44:28.724Z,7.93
2022-08-29T13:46:59.430Z,7.40
2022-08-29T13:49:35.533Z,7.18
2022-08-29T13:52:03.126Z,7.32
2022-08-29T13:54:30.879Z,7.47
2022-08-29T13:56:59.262Z,7.18
2022-08-29T13:59:30.598Z,7.45
2022-08-29T14:02:10.113Z,7.22
2022-08-29T14:04:39.890Z,8.27
2022-08-29T14:07:11.509Z,8.93
2022-08-29T14:09:42.197Z,9.23
2022-08-29T14:12:09.749Z,9.70
2022-08-29T14:14:36.481Z,9.98
2022-08-29T14:17:03.126Z,9.65
2022-08-29T14:19:31.186Z,10.05
2022-08-29T14:22:02.114Z,9.40
2022-08-29T14:24:31.048Z,9.25
2022-08-29T14:27:01.880Z,9.43
2022-08-29T14:29:31.061Z,8.88
2022-08-29T14:31:59.297Z,9.50
2022-08-29T14:34:32.584Z,9.23
2022-08-29T14:37:00.562Z,10.13
2022-08-29T14:39:27.436Z,8.80
2022-08-29T14:41:54.948Z,9.88
2022-08-29T14:44:22.248Z,9.10
2022-08-29T14:46:50.218Z,9.88
2022-08-29T14:49:17.043Z,10.15
2022-08-29T14:51:44.732Z,11.45
2022-08-29T14:54:12.709Z,11.75
2022-08-29T14:56:50.614Z,11.13
2022-08-29T14:59:19.410Z,11.38
2022-08-29T15:01:52.972Z,11.02
2022-08-29T15:04:21.707Z,10.18
2022-08-29T15:07:02.732Z,9.50
2022-08-29T15:09:30.004Z,10.55
2022-08-29T15:11:56.642Z,10.90
2022-08-29T15:14:23.570Z,11.00
2022-08-29T15:16:50.257Z,10.77
2022-08-29T15:19:53.689Z,10.48
2022-08-29T15:22:04.643Z,9.75
2022-08-29T15:24:32.113Z,11.15
2022-08-29T15:26:59.674Z,10.70
2022-08-29T15:29:26.493Z,11.65
2022-08-29T15:31:54.357Z,11.10
2022-08-29T15:34:21.018Z,11.13
2022-08-29T15:36:47.619Z,16.77
2022-08-29T15:39:14.350Z,13.23
2022-08-29T15:41:41.581Z,12.98
2022-08-29T15:44:08.321Z,12.95
2022-08-29T15:46:37.885Z,11.77
2022-08-29T15:49:08.848Z,14.13
2022-08-29T15:51:36.373Z,19.90
2022-08-29T15:54:03.980Z,21.40
2022-08-29T15:56:35.099Z,20.58
2022-08-29T15:59:07.026Z,19.67
2022-08-29T16:01:53.759Z,18.75
2022-08-29T16:04:22.810Z,16.38
2022-08-29T16:06:51.405Z,16.95
2022-08-29T16:09:18.759Z,14.43
2022-08-29T16:11:47.158Z,14.60
2022-08-29T16:17:01.967Z,14.38
2022-08-29T16:19:29.431Z,14.30
2022-08-29T16:21:59.999Z,13.93
2022-08-29T16:24:28.840Z,12.13
2022-08-29T16:26:55.641Z,13.90
2022-08-29T16:29:26.826Z,14.05
2022-08-29T16:31:57.915Z,13.88
2022-08-29T16:34:26.977Z,18.08
2022-08-29T16:37:01.881Z,19.27
2022-08-29T16:39:29.359Z,13.85
2022-08-29T16:41:56.217Z,13.82
2022-08-29T16:44:23.300Z,13.80
2022-08-29T16:46:50.009Z,16.45
2022-08-29T16:49:16.939Z,13.70
2022-08-29T16:51:43.745Z,14.80
2022-08-29T16:54:10.543Z,14.73
2022-08-29T16:56:37.885Z,13.32
2022-08-29T16:59:04.673Z,13.23
2022-08-29T17:01:38.974Z,14.05
2022-08-29T17:04:12.680Z,11.80
2022-08-29T17:06:39.527Z,13.13
2022-08-29T17:09:08.926Z,12.10
2022-08-29T17:11:37.098Z,11.50
2022-08-29T17:14:05.678Z,12.10
2022-08-29T17:16:32.816Z,12.93
2022-08-29T17:18:59.947Z,10.93
2022-08-29T17:21:27.688Z,12.20
2022-08-29T17:23:55.491Z,12.52
2022-08-29T17:26:22.978Z,13.07
2022-08-29T17:28:50.310Z,13.68
2022-08-29T17:31:19.074Z,12.48
2022-08-29T17:33:46.421Z,13.95
2022-08-29T17:36:13.647Z,14.45
2022-08-29T17:38:42.582Z,14.57
2022-08-29T17:41:14.961Z,15.95
2022-08-29T17:43:43.575Z,15.23
2022-08-29T17:46:11.175Z,14.15
2022-08-29T17:48:37.877Z,14.13
2022-08-29T17:51:04.794Z,14.50
2022-08-29T17:53:32.570Z,14.50
2022-08-29T17:56:10.112Z,14.77
2022-08-29T17:58:37.881Z,13.93
2022-08-29T18:01:04.576Z,14.20
2022-08-29T18:03:31.203Z,15.43
2022-08-29T18:05:57.781Z,16.05
2022-08-29T18:08:24.377Z,15.02
2022-08-29T18:10:51.766Z,15.98
2022-08-29T18:13:21.789Z,16.23
2022-08-29T18:15:50.655Z,17.35
2022-08-29T18:18:20.211Z,19.73
2022-08-29T18:20:47.103Z,18.13
2022-08-29T18:23:13.746Z,17.33
2022-08-29T18:25:40.426Z,18.00
2022-08-29T18:28:08.400Z,19.75
2022-08-29T18:30:35.557Z,16.50
2022-08-29T18:33:02.417Z,17.77
2022-08-29T18:35:29.523Z,17.10
2022-08-29T18:37:56.156Z,17.70
2022-08-29T18:40:23.380Z,18.83
2022-08-29T18:42:50.115Z,18.30
2022-08-29T18:45:16.784Z,17.02
2022-08-29T18:47:43.517Z,15.77
2022-08-29T18:50:29.285Z,15.05
2022-08-29T18:52:56.647Z,16.77
2022-08-29T18:55:23.980Z,16.85
2022-08-29T18:57:52.350Z,17.17
2022-08-29T19:00:19.045Z,18.95
2022-08-29T19:02:45.772Z,17.27
2022-08-29T19:05:12.907Z,20.48
2022-08-29T19:07:39.550Z,21.40
2022-08-29T19:10:07.277Z,21.00
2022-08-29T19:12:34.356Z,16.20
2022-08-29T19:15:01.004Z,17.77
2022-08-29T19:17:27.851Z,16.70
2022-08-29T19:20:13.192Z,16.08
2022-08-29T19:22:39.839Z,17.63
2022-08-29T19:25:08.756Z,17.95
2022-08-29T19:27:43.768Z,19.30
2022-08-29T19:30:13.523Z,15.75
2022-08-29T19:32:40.949Z,16.35
2022-08-29T19:35:11.203Z,15.63
2022-08-29T19:37:39.572Z,17.48
2022-08-29T19:40:07.408Z,15.88
2022-08-29T19:42:34.250Z,17.05
2022-08-29T19:45:02.066Z,17.52
2022-08-29T19:47:30.091Z,15.60
2022-08-29T19:49:56.904Z,17.20
2022-08-29T19:52:24.175Z,16.05
2022-08-29T19:54:51.148Z,15.60
2022-08-29T19:57:18.168Z,15.52
2022-08-29T19:59:45.862Z,15.25
2022-08-29T20:02:15.614Z,13.73
2022-08-29T20:04:43.072Z,17.52
2022-08-29T20:07:10.142Z,19.35
2022-08-29T20:09:37.001Z,16.10
2022-08-29T20:12:05.444Z,12.65
2022-08-29T20:14:32.514Z,12.35
2022-08-29T20:16:59.195Z,13.38
2022-08-29T20:19:26.939Z,13.30
2022-08-29T20:21:53.658Z,12.95
2022-08-29T20:24:20.421Z,12.43
2022-08-29T20:26:49.565Z,13.30
2022-08-29T20:29:17.162Z,13.23
2022-08-29T20:31:44.743Z,12.93
2022-08-29T20:34:11.767Z,14.02
2022-08-29T20:36:57.832Z,15.88
2022-08-29T20:39:25.577Z,13.77
2022-08-29T20:41:55.983Z,14.13
2022-08-29T20:44:28.144Z,14.52
2022-08-29T20:46:57.441Z,14.60
2022-08-29T20:49:26.818Z,13.32
2022-08-29T20:51:53.594Z,16.65
2022-08-29T20:54:22.845Z,14.65
2022-08-29T20:56:50.480Z,13.68
2022-08-29T20:59:17.529Z,13.60
2022-08-29T21:01:44.577Z,13.40
2022-08-29T21:04:30.621Z,14.57
2022-08-29T21:07:02.236Z,14.90
2022-08-29T21:09:29.511Z,15.50
2022-08-29T21:11:56.317Z,14.07
2022-08-29T21:14:23.420Z,14.73
2022-08-29T21:16:56.799Z,14.73
2022-08-29T21:19:24.704Z,13.38
2022-08-29T21:21:51.477Z,15.13
2022-08-29T21:24:18.501Z,14.48
2022-08-29T21:26:45.372Z,14.18
2022-08-29T21:29:12.025Z,13.95
2022-08-29T21:31:39.043Z,15.93
2022-08-29T21:34:10.421Z,16.02
2022-08-29T21:36:38.286Z,13.30
2022-08-29T21:39:07.716Z,15.23
2022-08-29T21:41:38.823Z,15.75
2022-08-29T21:44:06.296Z,15.60
2022-08-29T21:46:36.776Z,14.68
2022-08-29T21:49:06.827Z,13.23
2022-08-29T21:51:34.580Z,11.90
2022-08-29T21:54:02.287Z,12.40
2022-08-29T21:56:31.261Z,12.98
2022-08-29T21:58:58.729Z,11.98
2022-08-29T22:01:32.059Z,11.02
2022-08-29T22:04:01.006Z,11.60
2022-08-29T22:06:28.524Z,11.88
2022-08-29T22:08:55.585Z,10.73
2022-08-29T22:11:25.489Z,11.20
2022-08-29T22:14:05.019Z,10.63
2022-08-29T22:16:31.790Z,11.95
2022-08-29T22:19:01.885Z,10.52
2022-08-29T22:21:33.179Z,11.27
2022-08-29T22:24:00.756Z,12.43
2022-08-29T22:26:28.383Z,11.05
2022-08-29T22:28:55.794Z,12.00
2022-08-29T22:31:23.139Z,12.32
2022-08-29T22:33:50.170Z,11.80
2022-08-29T22:36:17.149Z,11.50
2022-08-29T22:38:45.857Z,12.30
2022-08-29T22:41:16.415Z,12.93
2022-08-29T22:43:45.163Z,12.57
2022-08-29T22:46:19.130Z,13.13
2022-08-29T22:48:45.830Z,11.85
2022-08-29T22:51:14.192Z,12.00
2022-08-29T22:53:41.534Z,11.70
2022-08-29T22:56:08.956Z,11.23
2022-08-29T22:58:36.576Z,11.63
2022-08-29T23:01:04.551Z,11.10
2022-08-29T23:03:32.144Z,11.35
2022-08-29T23:05:59.636Z,11.52
2022-08-29T23:08:26.342Z,11.77
2022-08-29T23:10:54.448Z,12.07
2022-08-29T23:13:22.888Z,10.73
2022-08-29T23:15:49.695Z,12.60
2022-08-29T23:18:16.464Z,9.85
2022-08-29T23:20:43.164Z,9.98
2022-08-29T23:23:13.837Z,11.18
2022-08-29T23:25:40.489Z,11.57
2022-08-29T23:28:07.228Z,12.00
2022-08-29T23:30:34.197Z,10.40
2022-08-29T23:33:00.936Z,12.38
2022-08-29T23:35:27.586Z,12.88
2022-08-29T23:37:54.417Z,13.60
2022-08-29T23:40:21.595Z,12.60
2022-08-29T23:42:48.872Z,12.63
2022-08-29T23:45:15.779Z,15.02
2022-08-29T23:47:42.575Z,14.32
2022-08-29T23:50:09.812Z,13.23
2022-08-29T23:52:36.396Z,14.15
2022-08-29T23:55:03.311Z,14.80
2022-08-29T23:57:30.038Z,14.40
